createdAt,value
2017-10-23T00:01:25.105Z,8.51
2017-10-23T00:03:52.682Z,8.52
2017-10-23T00:06:20.576Z,8.54
2017-10-23T00:08:48.123Z,8.56
2017-10-23T00:11:16.070Z,8.55
2017-10-23T00:13:43.740Z,8.55
2017-10-23T00:16:11.639Z,8.57
2017-10-23T00:18:39.214Z,8.56
2017-10-23T00:21:07.191Z,8.55
2017-10-23T00:23:35.115Z,8.56
2017-10-23T00:26:02.685Z,8.58
2017-10-23T00:28:30.275Z,8.56
2017-10-23T00:30:57.845Z,8.53
2017-10-23T00:33:25.393Z,8.51
2017-10-23T00:35:53.411Z,8.51
2017-10-23T00:38:20.985Z,8.51
2017-10-23T00:40:48.918Z,8.52
2017-10-23T00:43:16.487Z,8.54
2017-10-23T00:45:44.069Z,8.48
2017-10-23T00:48:11.634Z,8.50
2017-10-23T00:50:39.225Z,8.52
2017-10-23T00:53:06.792Z,8.52
2017-10-23T00:55:34.374Z,8.48
2017-10-23T00:58:01.954Z,8.48
2017-10-23T01:00:29.526Z,8.49
2017-10-23T01:02:57.101Z,8.51
2017-10-23T01:05:24.668Z,8.48
2017-10-23T01:07:52.600Z,8.51
2017-10-23T01:10:20.570Z,8.53
2017-10-23T01:12:48.539Z,8.51
2017-10-23T01:15:16.087Z,8.51
2017-10-23T01:17:44.249Z,8.48
2017-10-23T01:20:12.145Z,8.49
2017-10-23T01:22:40.039Z,8.48
2017-10-23T01:25:08.146Z,8.48
2017-10-23T01:27:35.711Z,8.48
2017-10-23T01:30:03.512Z,8.50
2017-10-23T01:32:31.204Z,8.52
2017-10-23T01:34:59.138Z,8.51
2017-10-23T01:37:26.673Z,8.53
2017-10-23T01:39:54.623Z,8.52
2017-10-23T01:42:22.185Z,8.51
2017-10-23T01:44:49.738Z,8.52
2017-10-23T01:47:17.298Z,8.53
2017-10-23T01:49:44.876Z,8.57
2017-10-23T01:52:12.474Z,8.58
2017-10-23T01:54:40.042Z,8.58
2017-10-23T01:57:08.646Z,8.57
2017-10-23T01:59:36.217Z,8.56
2017-10-23T02:02:03.758Z,8.57
2017-10-23T02:04:31.346Z,8.59
2017-10-23T02:06:59.342Z,8.61
2017-10-23T02:09:26.950Z,8.58
2017-10-23T02:11:54.522Z,8.61
2017-10-23T02:14:22.964Z,8.61
2017-10-23T02:16:50.519Z,8.59
2017-10-23T02:19:18.336Z,8.60
2017-10-23T02:21:45.911Z,8.58
2017-10-23T02:24:13.460Z,8.57
2017-10-23T02:26:41.497Z,8.57
2017-10-23T02:29:09.642Z,8.56
2017-10-23T02:31:37.226Z,8.56
2017-10-23T02:34:05.134Z,8.56
2017-10-23T02:36:32.707Z,8.56
2017-10-23T02:39:00.353Z,8.55
2017-10-23T02:41:28.593Z,8.56
2017-10-23T02:43:56.224Z,8.55
2017-10-23T02:46:23.801Z,8.53
2017-10-23T02:48:51.373Z,8.56
2017-10-23T02:51:18.981Z,8.52
2017-10-23T02:53:46.571Z,8.50
2017-10-23T02:56:15.949Z,8.53
2017-10-23T02:58:43.956Z,8.52
2017-10-23T03:01:11.547Z,8.52
2017-10-23T03:03:39.466Z,8.50
2017-10-23T03:06:07.053Z,8.53
2017-10-23T03:08:34.983Z,8.55
2017-10-23T03:11:02.709Z,8.58
2017-10-23T03:13:30.303Z,8.58
2017-10-23T03:15:57.864Z,8.55
2017-10-23T03:18:25.423Z,8.52
2017-10-23T03:20:53.253Z,8.54
2017-10-23T03:23:20.815Z,8.55
2017-10-23T03:25:48.582Z,8.55
2017-10-23T03:28:16.645Z,8.58
2017-10-23T03:30:44.635Z,8.52
2017-10-23T03:33:12.357Z,8.50
2017-10-23T03:35:39.916Z,8.51
2017-10-23T03:38:07.513Z,8.52
2017-10-23T03:40:35.065Z,8.45
2017-10-23T03:43:02.653Z,8.45
2017-10-23T03:45:32.675Z,8.44
2017-10-23T03:48:00.276Z,8.43
2017-10-23T03:50:27.900Z,8.46
2017-10-23T03:52:55.990Z,8.46
2017-10-23T03:55:23.643Z,8.46
2017-10-23T03:57:51.230Z,8.45
2017-10-23T04:00:18.796Z,8.45
2017-10-23T04:02:46.373Z,8.42
2017-10-23T04:05:14.320Z,8.40
2017-10-23T04:07:42.114Z,8.39
2017-10-23T04:10:09.713Z,8.40
2017-10-23T04:12:37.306Z,8.40
2017-10-23T04:15:04.859Z,8.39
2017-10-23T04:17:32.802Z,8.40
2017-10-23T04:20:00.478Z,8.38
2017-10-23T04:22:28.067Z,8.39
2017-10-23T04:24:55.632Z,8.38
2017-10-23T04:27:23.596Z,8.39
2017-10-23T04:29:51.159Z,8.38
2017-10-23T04:32:19.091Z,8.40
2017-10-23T04:34:46.750Z,8.39
2017-10-23T04:37:14.330Z,8.40
2017-10-23T04:39:42.828Z,8.40
2017-10-23T04:42:10.410Z,8.41
2017-10-23T04:44:38.408Z,8.40
2017-10-23T04:47:06.855Z,8.37
2017-10-23T04:49:34.428Z,8.38
2017-10-23T04:52:02.572Z,8.36
2017-10-23T04:54:30.138Z,8.34
2017-10-23T04:56:57.692Z,8.28
2017-10-23T04:59:25.255Z,8.28
2017-10-23T05:01:53.194Z,8.26
2017-10-23T05:04:20.756Z,8.23
2017-10-23T05:06:49.093Z,8.18
2017-10-23T05:09:16.715Z,8.14
2017-10-23T05:11:44.276Z,8.15
2017-10-23T05:14:11.881Z,8.17
2017-10-23T05:16:39.478Z,8.17
2017-10-23T05:19:07.969Z,8.12
2017-10-23T05:21:35.514Z,8.10
2017-10-23T05:24:03.111Z,8.12
2017-10-23T05:26:31.050Z,8.11
2017-10-23T05:28:58.609Z,8.12
2017-10-23T05:31:27.287Z,8.12
2017-10-23T05:33:54.911Z,8.11
2017-10-23T05:36:22.490Z,8.08
2017-10-23T05:38:50.048Z,8.08
2017-10-23T05:41:17.651Z,8.08
2017-10-23T05:43:45.212Z,8.02
2017-10-23T05:46:13.682Z,8.05
2017-10-23T05:48:41.332Z,8.06
2017-10-23T05:51:08.895Z,8.06
2017-10-23T05:53:37.860Z,8.06
2017-10-23T05:56:05.849Z,8.07
2017-10-23T05:58:37.525Z,8.07
2017-10-23T06:01:05.694Z,8.09
2017-10-23T06:03:33.283Z,8.11
2017-10-23T06:06:01.233Z,8.10
2017-10-23T06:08:28.920Z,8.09
2017-10-23T06:10:56.672Z,8.09
2017-10-23T06:13:24.227Z,8.11
2017-10-23T06:15:51.799Z,8.07
2017-10-23T06:18:20.558Z,8.09
2017-10-23T06:20:48.131Z,8.07
2017-10-23T06:23:15.709Z,8.11
2017-10-23T06:25:43.319Z,8.11
2017-10-23T06:28:11.071Z,8.12
2017-10-23T06:30:38.985Z,8.13
2017-10-23T06:33:06.520Z,8.14
2017-10-23T06:35:34.109Z,8.14
2017-10-23T06:38:01.706Z,8.09
2017-10-23T06:40:29.264Z,8.15
2017-10-23T06:42:56.821Z,8.17
2017-10-23T06:45:24.372Z,8.19
2017-10-23T06:47:51.955Z,8.22
2017-10-23T06:50:19.501Z,8.25
2017-10-23T06:52:47.080Z,8.21
2017-10-23T06:55:14.639Z,8.24
2017-10-23T06:57:42.177Z,8.27
2017-10-23T07:00:09.741Z,8.25
2017-10-23T07:02:37.301Z,8.26
2017-10-23T07:05:04.880Z,8.25
2017-10-23T07:07:32.422Z,8.31
2017-10-23T07:09:59.993Z,8.34
2017-10-23T07:12:27.553Z,8.30
2017-10-23T07:14:55.128Z,8.36
2017-10-23T07:17:22.676Z,8.39
2017-10-23T07:19:50.255Z,8.39
2017-10-23T07:22:17.838Z,8.40
2017-10-23T07:24:45.393Z,8.42
2017-10-23T07:27:12.961Z,8.42
2017-10-23T07:29:40.533Z,8.42
2017-10-23T07:32:08.297Z,8.44
2017-10-23T07:34:35.895Z,8.43
2017-10-23T07:37:03.833Z,8.48
2017-10-23T07:39:31.407Z,8.48
2017-10-23T07:41:58.987Z,8.50
2017-10-23T07:44:26.612Z,8.52
2017-10-23T07:46:54.527Z,8.55
2017-10-23T07:49:22.137Z,8.61
2017-10-23T07:51:49.725Z,8.64
2017-10-23T07:54:19.045Z,8.70
2017-10-23T07:56:46.785Z,8.63
2017-10-23T07:59:14.357Z,8.68
2017-10-23T08:01:41.926Z,8.69
2017-10-23T08:04:09.553Z,8.73
2017-10-23T08:06:37.131Z,8.76
2017-10-23T08:09:04.697Z,8.78
2017-10-23T08:11:32.274Z,8.85
2017-10-23T08:13:59.852Z,8.89
2017-10-23T08:16:27.421Z,8.94
2017-10-23T08:18:54.968Z,8.96
2017-10-23T08:21:22.539Z,9.06
2017-10-23T08:23:50.164Z,9.18
2017-10-23T08:26:18.631Z,9.18
2017-10-23T08:28:46.225Z,9.24
2017-10-23T08:31:13.795Z,9.31
2017-10-23T08:33:41.393Z,9.35
2017-10-23T08:36:08.938Z,9.31
2017-10-23T08:38:36.614Z,9.36
2017-10-23T08:41:04.570Z,9.35
2017-10-23T08:43:32.165Z,9.27
2017-10-23T08:45:59.741Z,9.27
2017-10-23T08:48:27.353Z,9.38
2017-10-23T08:50:54.944Z,9.47
2017-10-23T08:53:22.498Z,9.47
2017-10-23T08:55:50.366Z,9.48
2017-10-23T08:58:17.921Z,9.43
2017-10-23T09:00:45.610Z,9.46
2017-10-23T09:03:13.194Z,9.43
2017-10-23T09:05:40.780Z,9.46
2017-10-23T09:08:08.428Z,9.57
2017-10-23T09:10:36.010Z,9.62
2017-10-23T09:13:03.620Z,9.63
2017-10-23T09:15:31.232Z,9.66
2017-10-23T09:17:59.226Z,9.76
2017-10-23T09:20:26.793Z,9.87
2017-10-23T09:22:54.380Z,9.88
2017-10-23T09:25:22.144Z,10.00
2017-10-23T09:27:49.720Z,10.04
2017-10-23T09:30:18.238Z,10.02
2017-10-23T09:32:45.818Z,9.94
2017-10-23T09:35:13.422Z,9.95
2017-10-23T09:37:40.991Z,9.83
2017-10-23T09:40:08.588Z,9.84
2017-10-23T09:42:36.156Z,9.85
2017-10-23T09:45:03.728Z,9.90
2017-10-23T09:47:31.346Z,9.98
2017-10-23T09:49:59.066Z,10.02
2017-10-23T09:52:26.692Z,10.14
2017-10-23T09:54:54.768Z,10.14
2017-10-23T09:57:22.350Z,10.27
2017-10-23T09:59:49.936Z,10.21
2017-10-23T10:02:17.858Z,10.18
2017-10-23T10:04:45.426Z,10.20
2017-10-23T10:07:13.002Z,10.33
2017-10-23T10:09:40.592Z,10.37
2017-10-23T10:12:08.148Z,10.45
2017-10-23T10:14:35.744Z,10.54
2017-10-23T10:17:03.316Z,10.63
2017-10-23T10:19:30.902Z,10.76
2017-10-23T10:21:58.502Z,10.80
2017-10-23T10:24:26.099Z,10.85
2017-10-23T10:26:53.663Z,10.91
2017-10-23T10:29:21.236Z,10.98
2017-10-23T10:31:48.795Z,10.97
2017-10-23T10:34:16.361Z,10.94
2017-10-23T10:36:43.952Z,10.79
2017-10-23T10:39:11.544Z,10.64
2017-10-23T10:41:39.150Z,10.48
2017-10-23T10:44:06.711Z,10.43
2017-10-23T10:46:34.355Z,10.40
2017-10-23T10:49:01.985Z,10.49
2017-10-23T10:51:29.534Z,10.60
2017-10-23T10:53:57.161Z,10.78
2017-10-23T10:56:25.025Z,10.91
2017-10-23T10:58:52.628Z,10.96
2017-10-23T11:01:20.228Z,10.95
2017-10-23T11:03:47.880Z,10.96
2017-10-23T11:06:15.926Z,10.90
2017-10-23T11:08:44.908Z,10.84
2017-10-23T11:11:12.465Z,10.86
2017-10-23T11:13:40.364Z,10.86
2017-10-23T11:16:08.403Z,10.77
2017-10-23T11:18:35.994Z,10.70
2017-10-23T11:21:03.636Z,10.60
2017-10-23T11:23:31.358Z,10.59
2017-10-23T11:25:58.952Z,10.54
2017-10-23T11:28:26.836Z,10.50
2017-10-23T11:30:55.910Z,10.47
2017-10-23T11:33:23.923Z,10.43
2017-10-23T11:35:51.519Z,10.39
2017-10-23T11:38:19.253Z,10.24
2017-10-23T11:40:47.213Z,10.25
2017-10-23T11:43:14.822Z,10.35
2017-10-23T11:45:42.385Z,10.37
2017-10-23T11:48:10.411Z,10.46
2017-10-23T11:50:38.006Z,10.57
2017-10-23T11:53:06.073Z,10.55
2017-10-23T11:55:33.634Z,10.56
2017-10-23T11:58:01.933Z,10.56
2017-10-23T12:00:29.527Z,10.67
2017-10-23T12:02:57.097Z,10.79
2017-10-23T12:05:24.718Z,10.83
2017-10-23T12:07:52.296Z,10.73
2017-10-23T12:10:19.914Z,10.67
2017-10-23T12:12:48.814Z,10.63
2017-10-23T12:15:16.421Z,10.60
2017-10-23T12:17:44.092Z,10.58
2017-10-23T12:20:11.678Z,10.60
2017-10-23T12:22:39.306Z,10.49
2017-10-23T12:25:07.669Z,10.50
2017-10-23T12:27:35.294Z,10.44
2017-10-23T12:30:03.554Z,10.46
2017-10-23T12:32:31.213Z,10.51
2017-10-23T12:34:58.934Z,10.52
2017-10-23T12:37:26.526Z,10.52
2017-10-23T12:39:54.565Z,10.47
2017-10-23T12:42:22.622Z,10.52
2017-10-23T12:44:50.632Z,10.54
2017-10-23T12:47:18.188Z,10.62
2017-10-23T12:49:45.809Z,10.69
2017-10-23T12:52:14.906Z,10.72
2017-10-23T12:54:42.510Z,10.68
2017-10-23T12:57:10.693Z,10.74
2017-10-23T12:59:38.638Z,10.76
2017-10-23T13:02:06.651Z,10.89
2017-10-23T13:04:34.230Z,10.95
2017-10-23T13:07:01.851Z,10.99
2017-10-23T13:09:29.806Z,10.96
2017-10-23T13:11:57.401Z,10.97
2017-10-23T13:14:24.996Z,10.90
2017-10-23T13:16:52.565Z,10.85
2017-10-23T13:19:20.143Z,10.85
2017-10-23T13:21:47.846Z,10.85
2017-10-23T13:24:15.484Z,10.86
2017-10-23T13:26:43.061Z,10.82
2017-10-23T13:29:10.733Z,10.86
2017-10-23T13:31:38.484Z,10.89
2017-10-23T13:34:06.060Z,10.86
2017-10-23T13:36:34.062Z,10.84
2017-10-23T13:39:01.720Z,10.86
2017-10-23T13:41:29.730Z,10.88
2017-10-23T13:43:57.314Z,10.93
2017-10-23T13:46:24.936Z,10.98
2017-10-23T13:48:52.506Z,11.00
2017-10-23T13:51:20.085Z,11.03
2017-10-23T13:53:47.679Z,10.96
2017-10-23T13:56:15.264Z,10.92
2017-10-23T13:58:43.828Z,10.91
2017-10-23T14:01:11.409Z,10.88
2017-10-23T14:03:39.003Z,10.84
2017-10-23T14:06:06.570Z,10.83
2017-10-23T14:08:34.176Z,10.82
2017-10-23T14:11:01.739Z,10.81
2017-10-23T14:13:29.658Z,10.75
2017-10-23T14:15:58.651Z,10.69
2017-10-23T14:18:26.220Z,10.66
2017-10-23T14:20:53.825Z,10.70
2017-10-23T14:23:21.413Z,10.65
2017-10-23T14:25:49.019Z,10.66
2017-10-23T14:28:17.053Z,10.64
2017-10-23T14:30:44.643Z,10.63
2017-10-23T14:33:12.245Z,10.63
2017-10-23T14:35:39.968Z,10.65
2017-10-23T14:38:08.999Z,10.67
2017-10-23T14:40:36.599Z,10.68
2017-10-23T14:43:04.183Z,10.66
2017-10-23T14:45:31.789Z,10.67
2017-10-23T14:47:59.392Z,10.63
2017-10-23T14:50:26.996Z,10.60
2017-10-23T14:52:54.910Z,10.58
2017-10-23T14:55:22.466Z,10.56
2017-10-23T14:57:50.361Z,10.51
2017-10-23T15:00:18.507Z,10.49
2017-10-23T15:02:46.069Z,10.46
2017-10-23T15:05:14.761Z,10.43
2017-10-23T15:07:42.352Z,10.42
2017-10-23T15:10:09.937Z,10.42
2017-10-23T15:12:37.525Z,10.40
2017-10-23T15:15:05.117Z,10.40
2017-10-23T15:17:32.693Z,10.40
2017-10-23T15:20:00.285Z,10.40
2017-10-23T15:22:27.882Z,10.40
2017-10-23T15:24:55.494Z,10.40
2017-10-23T15:27:24.498Z,10.37
2017-10-23T15:29:52.091Z,10.32
2017-10-23T15:32:20.175Z,10.31
2017-10-23T15:34:47.772Z,10.29
2017-10-23T15:37:15.414Z,10.27
2017-10-23T15:39:43.019Z,10.22
2017-10-23T15:42:10.980Z,10.18
2017-10-23T15:44:39.019Z,10.13
2017-10-23T15:47:06.607Z,10.09
2017-10-23T15:49:34.545Z,10.05
2017-10-23T15:52:02.127Z,10.00
2017-10-23T15:54:30.153Z,9.98
2017-10-23T15:56:57.759Z,9.96
2017-10-23T15:59:25.341Z,9.95
2017-10-23T16:01:54.415Z,9.94
2017-10-23T16:04:21.989Z,9.90
2017-10-23T16:06:49.587Z,9.89
2017-10-23T16:09:17.160Z,9.85
2017-10-23T16:11:45.383Z,9.83
2017-10-23T16:14:13.008Z,9.82
2017-10-23T16:16:40.941Z,9.80
2017-10-23T16:19:08.546Z,9.79
2017-10-23T16:21:36.117Z,9.76
2017-10-23T16:24:03.719Z,9.76
2017-10-23T16:26:33.020Z,9.75
2017-10-23T16:29:00.636Z,9.72
2017-10-23T16:31:29.969Z,9.70
2017-10-23T16:33:57.555Z,9.69
2017-10-23T16:36:25.179Z,9.70
2017-10-23T16:38:53.195Z,9.66
2017-10-23T16:41:20.924Z,9.64
2017-10-23T16:43:48.558Z,9.61
2017-10-23T16:46:16.399Z,9.59
2017-10-23T16:48:44.360Z,9.58
2017-10-23T16:51:11.964Z,9.57
2017-10-23T16:53:39.552Z,9.57
2017-10-23T16:56:07.278Z,9.56
2017-10-23T16:58:37.407Z,9.54
2017-10-23T17:01:04.976Z,9.51
2017-10-23T17:03:32.584Z,9.50
2017-10-23T17:06:00.220Z,9.49
2017-10-23T17:08:27.825Z,9.49
2017-10-23T17:10:55.454Z,9.50
2017-10-23T17:13:23.168Z,9.48
2017-10-23T17:15:50.821Z,9.45
2017-10-23T17:18:20.592Z,9.46
2017-10-23T17:20:48.250Z,9.45
2017-10-23T17:23:16.474Z,9.47
2017-10-23T17:25:46.436Z,9.46
2017-10-23T17:28:14.720Z,9.45
2017-10-23T17:30:42.863Z,9.45
2017-10-23T17:33:10.487Z,9.43
2017-10-23T17:35:38.921Z,9.43
2017-10-23T17:38:06.598Z,9.41
2017-10-23T17:40:35.828Z,9.40
2017-10-23T17:43:03.495Z,9.39
2017-10-23T17:45:32.376Z,9.41
2017-10-23T17:48:00.071Z,9.41
2017-10-23T17:50:28.083Z,9.42
2017-10-23T17:52:55.765Z,9.42
2017-10-23T17:55:23.645Z,9.42
2017-10-23T17:57:51.326Z,9.45
2017-10-23T18:00:18.966Z,9.43
2017-10-23T18:02:47.209Z,9.42
2017-10-23T18:05:16.211Z,9.43
2017-10-23T18:07:44.064Z,9.41
2017-10-23T18:10:11.733Z,9.42
2017-10-23T18:12:40.003Z,9.43
2017-10-23T18:15:08.408Z,9.42
2017-10-23T18:17:36.173Z,9.41
2017-10-23T18:20:04.050Z,9.42
2017-10-23T18:22:32.847Z,9.40
2017-10-23T18:25:00.623Z,9.39
2017-10-23T18:27:28.465Z,9.39
2017-10-23T18:29:56.416Z,9.39
2017-10-23T18:32:24.309Z,9.37
2017-10-23T18:34:52.276Z,9.35
2017-10-23T18:37:20.030Z,9.34
2017-10-23T18:39:47.953Z,9.35
2017-10-23T18:42:16.803Z,9.27
2017-10-23T18:44:44.669Z,9.26
2017-10-23T18:47:13.673Z,9.22
2017-10-23T18:49:41.644Z,9.24
2017-10-23T18:52:10.731Z,9.23
2017-10-23T18:54:38.533Z,9.24
2017-10-23T18:57:06.511Z,9.21
2017-10-23T18:59:35.460Z,9.20
2017-10-23T19:02:03.732Z,9.18
2017-10-23T19:04:31.703Z,9.16
2017-10-23T19:06:59.702Z,9.16
2017-10-23T19:09:28.196Z,9.17
2017-10-23T19:11:56.747Z,9.16
2017-10-23T19:14:27.103Z,9.16
2017-10-23T19:16:56.319Z,9.15
2017-10-23T19:19:25.696Z,9.15
2017-10-23T19:21:54.970Z,9.16
2017-10-23T19:24:23.801Z,9.16
2017-10-23T19:26:53.579Z,9.14
2017-10-23T19:29:21.541Z,9.13
2017-10-23T19:31:49.696Z,9.11
2017-10-23T19:34:20.150Z,9.08
2017-10-23T19:36:48.053Z,9.03
2017-10-23T19:39:15.877Z,9.02
2017-10-23T19:41:43.893Z,8.98
2017-10-23T19:44:12.734Z,9.00
2017-10-23T19:46:42.138Z,9.01
2017-10-23T19:49:09.939Z,8.96
2017-10-23T19:51:37.771Z,8.95
2017-10-23T19:54:05.609Z,8.96
2017-10-23T19:56:33.608Z,8.97
2017-10-23T19:59:01.791Z,8.98
2017-10-23T20:01:29.756Z,9.00
2017-10-23T20:03:57.725Z,9.02
2017-10-23T20:06:25.982Z,9.03
2017-10-23T20:08:54.177Z,9.03
2017-10-23T20:11:22.780Z,9.02
2017-10-23T20:13:50.621Z,9.02
2017-10-23T20:16:18.497Z,9.03
2017-10-23T20:18:46.259Z,9.06
2017-10-23T20:21:14.222Z,9.07
2017-10-23T20:23:42.196Z,9.08
2017-10-23T20:26:09.959Z,9.08
2017-10-23T20:28:37.805Z,9.07
2017-10-23T20:31:05.666Z,9.06
2017-10-23T20:33:33.397Z,9.06
2017-10-23T20:36:01.192Z,9.05
2017-10-23T20:38:29.484Z,9.05
2017-10-23T20:40:57.272Z,9.03
2017-10-23T20:43:24.993Z,9.04
2017-10-23T20:45:52.853Z,9.04
2017-10-23T20:48:20.558Z,9.04
2017-10-23T20:50:48.214Z,9.05
2017-10-23T20:53:15.881Z,9.04
2017-10-23T20:55:43.549Z,9.06
2017-10-23T20:58:11.274Z,9.06
2017-10-23T21:00:38.892Z,9.04
2017-10-23T21:03:06.493Z,9.05
2017-10-23T21:05:34.105Z,9.03
2017-10-23T21:08:01.743Z,9.03
2017-10-23T21:10:29.326Z,9.04
2017-10-23T21:12:56.954Z,9.04
2017-10-23T21:15:24.560Z,9.05
2017-10-23T21:17:52.200Z,9.04
2017-10-23T21:20:20.444Z,9.03
2017-10-23T21:22:48.684Z,9.05
2017-10-23T21:25:16.604Z,9.05
2017-10-23T21:27:44.628Z,9.06
2017-10-23T21:30:12.602Z,9.07
2017-10-23T21:32:40.213Z,9.07
2017-10-23T21:35:08.104Z,9.06
2017-10-23T21:37:35.684Z,9.05
2017-10-23T21:40:03.263Z,9.06
2017-10-23T21:42:32.352Z,9.06
2017-10-23T21:47:33.881Z,9.03
2017-10-23T21:50:02.022Z,9.03
2017-10-23T21:52:30.023Z,9.02
2017-10-23T21:54:57.911Z,9.01
2017-10-23T21:57:25.513Z,8.99
2017-10-23T21:59:53.859Z,8.96
2017-10-23T22:02:21.437Z,8.96
2017-10-23T22:04:49.044Z,8.96
2017-10-23T22:07:17.501Z,8.96
2017-10-23T22:09:45.338Z,8.98
2017-10-23T22:12:12.909Z,8.97
2017-10-23T22:14:40.535Z,8.99
2017-10-23T22:17:08.447Z,9.00
2017-10-23T22:19:36.017Z,9.00
2017-10-23T22:22:03.592Z,9.01
2017-10-23T22:24:31.171Z,9.02
2017-10-23T22:26:59.121Z,9.00
2017-10-23T22:29:26.756Z,9.00
2017-10-23T22:31:54.367Z,9.01
2017-10-23T22:34:24.514Z,9.01
2017-10-23T22:36:52.107Z,9.00
2017-10-23T22:39:19.678Z,8.98
2017-10-23T22:41:47.261Z,8.98
2017-10-23T22:44:14.871Z,8.99
2017-10-23T22:46:42.459Z,9.00
2017-10-23T22:49:10.057Z,9.00
2017-10-23T22:51:38.001Z,8.99
2017-10-23T22:54:05.742Z,8.98
2017-10-23T22:56:33.675Z,8.99
2017-10-23T22:59:01.591Z,9.00
2017-10-23T23:01:29.134Z,8.99
2017-10-23T23:03:56.716Z,9.01
2017-10-23T23:06:24.317Z,9.01
2017-10-23T23:08:51.909Z,9.02
2017-10-23T23:11:20.091Z,9.01
2017-10-23T23:13:47.681Z,9.02
2017-10-23T23:16:15.259Z,9.01
2017-10-23T23:18:42.840Z,9.01
2017-10-23T23:21:10.832Z,9.01
2017-10-23T23:23:40.319Z,9.00
2017-10-23T23:26:07.890Z,9.00
2017-10-23T23:28:35.899Z,9.01
2017-10-23T23:31:03.501Z,9.00
2017-10-23T23:33:31.748Z,8.99
2017-10-23T23:35:59.311Z,9.00
2017-10-23T23:38:26.904Z,9.00
2017-10-23T23:40:55.068Z,8.98
2017-10-23T23:43:22.996Z,8.96
2017-10-23T23:45:50.564Z,8.97
2017-10-23T23:48:19.595Z,8.97
2017-10-23T23:50:47.177Z,8.95
2017-10-23T23:53:14.720Z,8.95
2017-10-23T23:55:44.091Z,8.95
2017-10-23T23:58:11.654Z,8.94
